createdAt,value
2023-03-17T00:00:40.112Z,2.53
2023-03-17T00:03:08.514Z,2.70
2023-03-17T00:05:36.521Z,2.83
2023-03-17T00:08:07.702Z,2.40
2023-03-17T00:10:36.836Z,2.30
2023-03-17T00:13:04.554Z,2.20
2023-03-17T00:15:32.251Z,2.50
2023-03-17T00:17:59.914Z,2.10
2023-03-17T00:20:29.368Z,2.67
2023-03-17T00:22:59.271Z,1.90
2023-03-17T00:25:28.968Z,2.70
2023-03-17T00:27:59.151Z,2.77
2023-03-17T00:30:29.040Z,2.90
2023-03-17T00:32:59.115Z,2.60
2023-03-17T00:35:29.044Z,2.40
2023-03-17T00:37:58.450Z,2.80
2023-03-17T00:40:30.735Z,2.43
2023-03-17T00:43:00.908Z,2.37
2023-03-17T00:45:29.075Z,2.67
2023-03-17T00:47:59.035Z,2.93
2023-03-17T00:50:28.528Z,2.37
2023-03-17T00:52:57.706Z,2.40
2023-03-17T00:55:26.474Z,2.27
2023-03-17T00:57:55.216Z,2.60
2023-03-17T01:00:29.937Z,2.57
2023-03-17T01:02:58.348Z,1.83
2023-03-17T01:05:28.527Z,3.00
2023-03-17T01:07:57.746Z,2.40
2023-03-17T01:10:27.339Z,2.37
2023-03-17T01:12:57.887Z,2.50
2023-03-17T01:15:31.503Z,2.43
2023-03-17T01:17:59.742Z,2.37
2023-03-17T01:20:30.040Z,2.50
2023-03-17T01:22:58.509Z,2.20
2023-03-17T01:25:27.575Z,2.80
2023-03-17T01:27:56.732Z,2.43
2023-03-17T01:30:28.753Z,2.20
2023-03-17T01:32:59.120Z,2.83
2023-03-17T01:35:29.352Z,2.73
2023-03-17T01:37:57.395Z,2.10
2023-03-17T01:40:28.561Z,2.80
2023-03-17T01:43:01.382Z,2.40
2023-03-17T01:46:07.510Z,2.70
2023-03-17T01:48:40.062Z,2.10
2023-03-17T01:51:08.465Z,2.27
2023-03-17T01:53:37.004Z,2.50
2023-03-17T01:56:05.248Z,2.70
2023-03-17T01:58:34.542Z,3.00
2023-03-17T02:01:02.387Z,2.80
2023-03-17T02:03:30.735Z,2.73
2023-03-17T02:06:00.519Z,2.33
2023-03-17T02:08:28.275Z,2.73
2023-03-17T02:10:57.330Z,2.63
2023-03-17T02:13:25.054Z,2.10
2023-03-17T02:15:54.469Z,2.50
2023-03-17T02:18:23.748Z,3.10
2023-03-17T02:21:28.601Z,3.10
2023-03-17T02:23:56.761Z,3.00
2023-03-17T02:26:25.999Z,3.23
2023-03-17T02:28:53.839Z,3.40
2023-03-17T02:31:21.984Z,2.10
2023-03-17T02:33:52.422Z,2.60
2023-03-17T02:36:20.302Z,2.93
2023-03-17T02:38:49.412Z,2.37
2023-03-17T02:41:17.433Z,3.90
2023-03-17T02:43:45.445Z,2.53
2023-03-17T02:46:13.299Z,2.30
2023-03-17T02:48:41.309Z,2.50
2023-03-17T02:51:09.032Z,3.00
2023-03-17T02:53:36.661Z,3.10
2023-03-17T02:56:06.227Z,2.70
2023-03-17T02:58:33.800Z,3.20
2023-03-17T03:01:01.484Z,4.23
2023-03-17T03:03:29.201Z,2.90
2023-03-17T03:05:57.598Z,2.50
2023-03-17T03:08:26.147Z,3.30
2023-03-17T03:10:54.878Z,2.93
2023-03-17T03:13:23.950Z,2.70
2023-03-17T03:15:51.769Z,2.97
2023-03-17T03:18:19.661Z,2.80
2023-03-17T03:20:47.986Z,2.73
2023-03-17T03:23:16.126Z,2.90
2023-03-17T03:25:43.765Z,3.30
2023-03-17T03:28:11.374Z,2.83
2023-03-17T03:30:41.065Z,3.13
2023-03-17T03:33:08.681Z,3.77
2023-03-17T03:35:36.318Z,3.20
2023-03-17T03:38:03.982Z,3.00
2023-03-17T03:40:32.157Z,2.90
2023-03-17T03:43:02.407Z,3.00
2023-03-17T03:45:33.102Z,3.13
2023-03-17T03:48:02.040Z,3.60
2023-03-17T03:50:29.949Z,3.80
2023-03-17T03:52:58.579Z,3.27
2023-03-17T03:55:26.202Z,3.20
2023-03-17T03:57:53.868Z,4.00
2023-03-17T04:00:22.139Z,3.73
2023-03-17T04:02:50.466Z,2.87
2023-03-17T04:05:19.970Z,2.70
2023-03-17T04:07:47.844Z,3.50
2023-03-17T04:10:16.826Z,3.37
2023-03-17T04:12:45.772Z,3.73
2023-03-17T04:15:16.371Z,3.13
2023-03-17T04:17:44.569Z,3.97
2023-03-17T04:20:14.170Z,3.80
2023-03-17T04:22:43.652Z,2.90
2023-03-17T04:25:13.501Z,4.60
2023-03-17T04:27:41.248Z,3.67
2023-03-17T04:30:12.169Z,3.30
2023-03-17T04:32:39.916Z,3.60
2023-03-17T04:35:10.978Z,4.07
2023-03-17T04:37:38.903Z,3.40
2023-03-17T04:40:09.896Z,4.27
2023-03-17T04:42:37.665Z,3.50
2023-03-17T04:45:06.442Z,4.27
2023-03-17T04:47:34.522Z,3.70
2023-03-17T04:50:02.630Z,3.40
2023-03-17T04:52:31.077Z,3.53
2023-03-17T04:54:58.896Z,3.93
2023-03-17T04:57:27.916Z,3.53
2023-03-17T04:59:55.773Z,4.57
2023-03-17T05:02:23.337Z,4.10
2023-03-17T05:04:51.290Z,3.80
2023-03-17T05:07:19.010Z,3.53
2023-03-17T05:09:47.329Z,3.70
2023-03-17T05:12:15.435Z,3.60
2023-03-17T05:14:44.426Z,4.33
2023-03-17T05:17:12.327Z,3.80
2023-03-17T05:19:39.875Z,5.00
2023-03-17T05:22:07.550Z,3.83
2023-03-17T05:24:35.312Z,3.83
2023-03-17T05:27:02.896Z,3.90
2023-03-17T05:29:30.498Z,3.90
2023-03-17T05:31:59.460Z,4.10
2023-03-17T05:34:27.416Z,4.17
2023-03-17T05:36:55.403Z,4.23
2023-03-17T05:39:23.008Z,5.20
2023-03-17T05:41:51.515Z,4.27
2023-03-17T05:44:20.345Z,4.27
2023-03-17T05:46:48.068Z,5.00
2023-03-17T05:49:17.098Z,4.07
2023-03-17T05:51:47.995Z,4.63
2023-03-17T05:54:15.678Z,4.80
2023-03-17T05:56:43.364Z,4.40
2023-03-17T05:59:14.832Z,5.30
2023-03-17T06:01:42.506Z,4.53
2023-03-17T06:04:10.134Z,4.13
2023-03-17T06:06:39.105Z,5.37
2023-03-17T06:09:07.012Z,4.33
2023-03-17T06:11:34.727Z,4.10
2023-03-17T06:14:02.837Z,4.63
2023-03-17T06:16:33.136Z,4.70
2023-03-17T06:19:01.181Z,4.90
2023-03-17T06:21:29.373Z,4.10
2023-03-17T06:23:58.367Z,4.43
2023-03-17T06:26:27.151Z,5.37
2023-03-17T06:28:55.061Z,5.40
2023-03-17T06:31:23.985Z,4.73
2023-03-17T06:33:52.093Z,4.90
2023-03-17T06:36:19.754Z,4.80
2023-03-17T06:38:47.488Z,4.83
2023-03-17T06:41:16.514Z,4.80
2023-03-17T06:43:44.656Z,4.47
2023-03-17T06:46:12.374Z,5.40
2023-03-17T06:48:40.001Z,5.13
2023-03-17T06:51:07.945Z,4.10
2023-03-17T06:53:35.562Z,4.80
2023-03-17T06:56:05.102Z,4.60
2023-03-17T06:58:34.476Z,5.00
2023-03-17T07:01:02.371Z,4.87
2023-03-17T07:03:31.086Z,5.27
2023-03-17T07:05:59.748Z,4.67
2023-03-17T07:08:30.661Z,4.80
2023-03-17T07:10:59.019Z,4.53
2023-03-17T07:13:27.279Z,6.27
2023-03-17T07:15:59.091Z,4.70
2023-03-17T07:18:27.987Z,4.57
2023-03-17T07:20:56.294Z,5.13
2023-03-17T07:23:24.006Z,4.87
2023-03-17T07:25:52.558Z,4.80
2023-03-17T07:28:21.615Z,5.27
2023-03-17T07:30:49.874Z,5.20
2023-03-17T07:33:21.217Z,4.53
2023-03-17T07:35:49.631Z,5.17
2023-03-17T07:38:19.813Z,5.00
2023-03-17T07:40:48.979Z,5.37
2023-03-17T07:43:17.751Z,5.33
2023-03-17T07:45:45.625Z,4.77
2023-03-17T07:48:13.613Z,5.33
2023-03-17T07:50:43.038Z,5.83
2023-03-17T07:53:10.920Z,4.90
2023-03-17T07:55:39.176Z,4.87
2023-03-17T07:58:07.583Z,5.63
2023-03-17T08:00:35.833Z,4.90
2023-03-17T08:03:10.269Z,5.17
2023-03-17T08:05:38.610Z,4.90
2023-03-17T08:08:07.771Z,4.87
2023-03-17T08:10:35.926Z,5.03
2023-03-17T08:13:04.004Z,4.50
2023-03-17T08:15:31.768Z,4.47
2023-03-17T08:17:59.686Z,4.40
2023-03-17T08:20:27.418Z,4.43
2023-03-17T08:22:55.825Z,5.97
2023-03-17T08:25:24.964Z,5.73
2023-03-17T08:27:54.013Z,5.10
2023-03-17T08:30:21.969Z,4.57
2023-03-17T08:32:49.903Z,4.93
2023-03-17T08:35:18.554Z,5.20
2023-03-17T08:37:47.639Z,5.40
2023-03-17T08:40:17.341Z,5.20
2023-03-17T08:42:47.675Z,4.50
2023-03-17T08:45:16.790Z,4.87
2023-03-17T08:47:44.594Z,4.33
2023-03-17T08:50:18.119Z,4.77
2023-03-17T08:52:46.160Z,4.63
2023-03-17T08:55:15.274Z,4.90
2023-03-17T08:57:44.777Z,4.50
2023-03-17T09:00:16.290Z,4.30
2023-03-17T09:02:45.159Z,4.73
2023-03-17T09:05:15.228Z,4.97
2023-03-17T09:07:44.152Z,3.67
2023-03-17T09:10:13.715Z,3.93
2023-03-17T09:12:42.950Z,3.83
2023-03-17T09:15:14.612Z,3.80
2023-03-17T09:17:44.152Z,4.73
2023-03-17T09:20:15.193Z,4.10
2023-03-17T09:22:43.159Z,4.03
2023-03-17T09:25:11.152Z,4.13
2023-03-17T09:27:39.088Z,4.03
2023-03-17T09:30:10.453Z,5.23
2023-03-17T09:32:39.694Z,4.50
2023-03-17T09:35:09.102Z,4.43
2023-03-17T09:37:37.938Z,3.40
2023-03-17T09:40:09.364Z,4.10
2023-03-17T09:42:49.659Z,4.50
2023-03-17T09:45:24.433Z,4.13
2023-03-17T09:48:18.434Z,3.97
2023-03-17T09:50:49.697Z,3.80
2023-03-17T09:53:20.298Z,4.60
2023-03-17T09:55:49.730Z,5.60
2023-03-17T09:58:18.159Z,3.73
2023-03-17T10:00:46.307Z,3.40
2023-03-17T10:03:15.346Z,4.50
2023-03-17T10:05:43.049Z,4.00
2023-03-17T10:08:29.562Z,3.53
2023-03-17T10:11:03.359Z,4.03
2023-03-17T10:13:43.606Z,3.90
2023-03-17T10:16:14.546Z,3.40
2023-03-17T10:18:48.661Z,3.43
2023-03-17T10:21:19.427Z,3.90
2023-03-17T10:23:47.403Z,3.40
2023-03-17T10:26:23.861Z,4.27
2023-03-17T10:28:51.547Z,3.30
2023-03-17T10:31:22.795Z,3.37
2023-03-17T10:33:53.400Z,2.77
2023-03-17T10:36:34.739Z,3.57
2023-03-17T10:39:05.278Z,2.60
2023-03-17T10:41:34.494Z,3.63
2023-03-17T10:44:02.391Z,3.03
2023-03-17T10:46:31.425Z,4.00
2023-03-17T10:49:10.937Z,4.77
2023-03-17T10:51:40.595Z,3.30
2023-03-17T10:54:11.116Z,2.93
2023-03-17T10:56:41.892Z,2.97
2023-03-17T10:59:16.386Z,2.90
2023-03-17T11:01:48.801Z,3.80
2023-03-17T11:04:33.938Z,4.27
2023-03-17T11:07:07.678Z,2.87
2023-03-17T11:09:36.164Z,3.33
2023-03-17T11:12:05.990Z,3.20
2023-03-17T11:14:35.525Z,2.90
2023-03-17T11:17:04.947Z,2.47
2023-03-17T11:19:44.820Z,3.20
2023-03-17T11:22:15.644Z,3.50
2023-03-17T11:24:52.905Z,3.63
2023-03-17T11:27:28.137Z,2.90
2023-03-17T11:30:12.239Z,2.50
2023-03-17T11:32:44.694Z,2.47
2023-03-17T11:35:25.568Z,2.97
2023-03-17T11:38:09.272Z,3.27
2023-03-17T11:40:42.184Z,3.23
2023-03-17T11:43:22.829Z,3.03
2023-03-17T11:45:54.967Z,3.57
2023-03-17T11:48:31.612Z,3.33
2023-03-17T11:51:03.241Z,3.20
2023-03-17T11:53:50.836Z,3.40
2023-03-17T11:56:21.499Z,2.77
2023-03-17T11:58:53.047Z,2.90
2023-03-17T12:01:24.424Z,2.80
2023-03-17T12:03:55.706Z,3.00
2023-03-17T12:06:28.150Z,2.97
2023-03-17T12:08:59.701Z,3.30
2023-03-17T12:11:29.837Z,2.53
2023-03-17T12:14:03.000Z,2.60
2023-03-17T12:16:33.805Z,3.50
2023-03-17T12:19:08.767Z,2.50
2023-03-17T12:21:43.006Z,3.27
2023-03-17T12:24:14.113Z,2.73
2023-03-17T12:26:48.572Z,2.40
2023-03-17T12:29:18.511Z,2.47
2023-03-17T12:31:49.715Z,2.50
2023-03-17T12:34:21.881Z,2.20
2023-03-17T12:36:51.466Z,2.50
2023-03-17T12:39:20.584Z,2.90
2023-03-17T12:42:06.068Z,2.60
2023-03-17T12:44:51.242Z,2.97
2023-03-17T12:47:38.023Z,2.30
2023-03-17T12:50:19.674Z,2.30
2023-03-17T12:53:08.147Z,3.20
2023-03-17T12:55:36.915Z,2.40
2023-03-17T12:58:08.066Z,2.13
2023-03-17T13:00:50.624Z,5.83
2023-03-17T13:03:23.633Z,3.70
2023-03-17T13:05:54.391Z,2.50
2023-03-17T13:08:31.314Z,2.57
2023-03-17T13:11:23.552Z,2.80
2023-03-17T13:14:08.599Z,2.07
2023-03-17T13:16:41.051Z,2.23
2023-03-17T13:19:15.723Z,2.40
2023-03-17T13:21:50.567Z,3.03
2023-03-17T13:24:25.572Z,2.40
2023-03-17T13:27:04.600Z,2.70
2023-03-17T13:29:41.950Z,2.37
2023-03-17T13:32:32.957Z,2.70
2023-03-17T13:35:17.304Z,2.90
2023-03-17T13:38:07.935Z,2.40
2023-03-17T13:40:43.769Z,2.67
2023-03-17T13:43:30.852Z,2.60
2023-03-17T13:46:20.713Z,3.00
2023-03-17T13:48:49.437Z,2.30
2023-03-17T13:51:21.299Z,2.90
2023-03-17T13:53:52.752Z,2.70
2023-03-17T13:56:26.507Z,2.90
2023-03-17T13:59:06.327Z,2.97
2023-03-17T14:01:40.816Z,2.80
2023-03-17T14:04:17.572Z,2.20
2023-03-17T14:06:48.003Z,2.63
2023-03-17T14:09:26.728Z,2.47
2023-03-17T14:11:57.680Z,2.40
2023-03-17T14:14:33.406Z,2.50
2023-03-17T14:17:06.381Z,2.57
2023-03-17T14:19:34.093Z,2.47
2023-03-17T14:22:06.091Z,2.53
2023-03-17T14:24:35.375Z,2.43
2023-03-17T14:27:08.204Z,2.40
2023-03-17T14:29:36.373Z,1.83
2023-03-17T14:32:06.488Z,2.83
2023-03-17T14:34:34.969Z,2.93
2023-03-17T14:37:04.391Z,2.70
2023-03-17T14:39:32.298Z,2.20
2023-03-17T14:42:01.875Z,2.40
2023-03-17T14:44:37.217Z,1.73
2023-03-17T14:47:06.777Z,2.90
2023-03-17T14:49:34.648Z,2.97
2023-03-17T14:52:02.603Z,2.30
2023-03-17T14:54:33.120Z,2.30
2023-03-17T14:57:03.338Z,2.93
2023-03-17T14:59:35.278Z,2.50
2023-03-17T15:02:04.126Z,2.43
2023-03-17T15:04:33.177Z,2.40
2023-03-17T15:07:02.639Z,2.90
2023-03-17T15:09:36.210Z,2.90
2023-03-17T15:12:06.846Z,3.40
2023-03-17T15:14:38.863Z,2.80
2023-03-17T15:17:08.151Z,3.70
2023-03-17T15:19:40.292Z,2.87
2023-03-17T15:22:24.008Z,3.10
2023-03-17T15:25:00.972Z,3.30
2023-03-17T15:27:29.852Z,2.87
2023-03-17T15:29:59.333Z,3.23
2023-03-17T15:32:27.955Z,2.43
2023-03-17T15:34:57.815Z,2.83
2023-03-17T15:37:27.648Z,2.67
2023-03-17T15:39:56.473Z,2.40
2023-03-17T15:42:27.146Z,2.07
2023-03-17T15:44:55.452Z,2.60
2023-03-17T15:47:27.171Z,1.93
2023-03-17T15:49:58.742Z,3.00
2023-03-17T15:52:27.989Z,2.30
2023-03-17T15:54:58.435Z,2.03
2023-03-17T15:57:27.100Z,2.27
2023-03-17T15:59:54.939Z,2.03
2023-03-17T16:02:29.835Z,2.77
2023-03-17T16:04:58.372Z,2.30
2023-03-17T16:07:26.851Z,2.03
2023-03-17T16:09:54.817Z,2.33
2023-03-17T16:12:23.051Z,2.30
2023-03-17T16:14:51.617Z,2.27
2023-03-17T16:17:26.735Z,2.10
2023-03-17T16:19:57.323Z,2.20
2023-03-17T16:22:36.809Z,2.23
2023-03-17T16:25:05.834Z,2.67
2023-03-17T16:27:33.537Z,2.63
2023-03-17T16:30:01.273Z,2.90
2023-03-17T16:32:28.969Z,2.37
2023-03-17T16:34:57.989Z,2.50
2023-03-17T16:37:25.701Z,2.40
2023-03-17T16:39:53.359Z,1.97
2023-03-17T16:42:23.486Z,2.50
2023-03-17T16:44:51.570Z,1.80
2023-03-17T16:47:19.609Z,2.17
2023-03-17T16:49:47.471Z,2.40
2023-03-17T16:52:16.458Z,1.90
2023-03-17T16:54:44.133Z,2.30
2023-03-17T16:57:12.965Z,2.60
2023-03-17T16:59:40.717Z,2.90
2023-03-17T17:02:16.039Z,2.07
2023-03-17T17:04:43.653Z,2.20
2023-03-17T17:07:11.387Z,1.97
2023-03-17T17:09:40.474Z,2.23
2023-03-17T17:12:08.859Z,2.17
2023-03-17T17:14:36.961Z,1.90
2023-03-17T17:17:04.766Z,2.93
2023-03-17T17:19:32.869Z,2.33
2023-03-17T17:22:00.563Z,3.13
2023-03-17T17:24:28.262Z,2.93
2023-03-17T17:26:57.179Z,2.73
2023-03-17T17:29:24.856Z,3.20
2023-03-17T17:31:52.505Z,3.17
2023-03-17T17:34:20.260Z,2.67
2023-03-17T17:36:47.941Z,3.03
2023-03-17T17:39:16.169Z,4.23
2023-03-17T17:41:43.802Z,5.60
2023-03-17T17:44:12.721Z,5.40
2023-03-17T17:46:40.438Z,4.37
2023-03-17T17:49:08.177Z,4.57
2023-03-17T17:51:35.790Z,4.07
2023-03-17T17:54:03.534Z,3.70
2023-03-17T17:56:32.610Z,3.77
2023-03-17T17:59:00.513Z,4.07
2023-03-17T18:01:29.672Z,3.63
2023-03-17T18:03:57.329Z,4.10
2023-03-17T18:06:24.937Z,3.27
2023-03-17T18:08:52.546Z,3.30
2023-03-17T18:11:20.179Z,3.87
2023-03-17T18:13:47.773Z,3.47
2023-03-17T18:16:17.635Z,4.47
2023-03-17T18:18:47.163Z,3.50
2023-03-17T18:21:15.092Z,3.30
2023-03-17T18:23:46.832Z,3.37
2023-03-17T18:26:15.433Z,3.90
2023-03-17T18:28:43.192Z,3.90
2023-03-17T18:31:13.212Z,4.50
2023-03-17T18:33:41.745Z,4.97
2023-03-17T18:36:11.619Z,5.00
2023-03-17T18:38:39.372Z,4.73
2023-03-17T18:41:08.057Z,4.73
2023-03-17T18:43:36.061Z,4.80
2023-03-17T18:46:03.972Z,5.10
2023-03-17T18:48:31.917Z,4.83
2023-03-17T18:50:59.602Z,4.70
2023-03-17T18:53:30.697Z,5.77
2023-03-17T18:55:59.288Z,5.63
2023-03-17T18:58:27.246Z,4.73
2023-03-17T19:00:58.642Z,5.67
2023-03-17T19:03:27.327Z,5.70
2023-03-17T19:05:55.445Z,5.40
2023-03-17T19:08:23.679Z,5.37
2023-03-17T19:10:52.659Z,4.97
2023-03-17T19:13:20.444Z,8.43
2023-03-17T19:15:48.053Z,49.33
2023-03-17T19:18:16.162Z,80.60
2023-03-17T19:20:43.794Z,75.93
2023-03-17T19:23:12.441Z,8.20
2023-03-17T19:25:40.103Z,9.47
2023-03-17T19:28:09.222Z,8.93
2023-03-17T19:30:37.027Z,63.70
2023-03-17T19:33:04.985Z,38.87
2023-03-17T19:35:32.947Z,5.87
2023-03-17T19:38:01.153Z,5.50
2023-03-17T19:40:29.278Z,5.80
2023-03-17T19:42:57.613Z,16.07
2023-03-17T19:45:27.124Z,7.57
2023-03-17T19:47:54.750Z,6.20
2023-03-17T19:50:22.471Z,6.20
2023-03-17T19:52:52.976Z,6.67
2023-03-17T19:55:21.408Z,5.30
2023-03-17T19:57:49.235Z,9.30
2023-03-17T20:00:18.340Z,5.87
2023-03-17T20:02:47.607Z,6.57
2023-03-17T20:05:16.742Z,6.00
2023-03-17T20:07:45.311Z,6.00
2023-03-17T20:10:13.746Z,7.63
2023-03-17T20:12:42.513Z,6.70
2023-03-17T20:15:12.463Z,6.63
2023-03-17T20:17:41.180Z,6.70
2023-03-17T20:20:12.041Z,6.07
2023-03-17T20:22:41.235Z,6.43
2023-03-17T20:25:10.322Z,6.47
2023-03-17T20:27:38.605Z,7.30
2023-03-17T20:30:08.410Z,7.57
2023-03-17T20:32:36.615Z,6.07
2023-03-17T20:35:06.798Z,6.80
2023-03-17T20:37:38.661Z,7.53
2023-03-17T20:40:09.702Z,6.70
2023-03-17T20:42:37.432Z,7.07
2023-03-17T20:45:07.564Z,6.27
2023-03-17T20:47:36.293Z,6.67
2023-03-17T20:50:04.651Z,5.93
2023-03-17T20:52:32.338Z,7.07
2023-03-17T20:55:02.663Z,7.43
2023-03-17T20:57:30.282Z,6.73
2023-03-17T20:59:58.144Z,7.23
2023-03-17T21:02:26.240Z,6.80
2023-03-17T21:04:53.993Z,7.83
2023-03-17T21:07:23.185Z,6.57
2023-03-17T21:09:52.315Z,7.63
2023-03-17T21:12:21.675Z,6.43
2023-03-17T21:14:49.805Z,6.77
2023-03-17T21:17:18.403Z,6.87
2023-03-17T21:19:46.450Z,6.40
2023-03-17T21:22:14.178Z,6.80
2023-03-17T21:24:42.080Z,6.87
2023-03-17T21:27:12.067Z,6.73
2023-03-17T21:29:41.380Z,8.17
2023-03-17T21:32:12.142Z,6.90
2023-03-17T21:34:39.769Z,6.00
2023-03-17T21:37:07.773Z,8.10
2023-03-17T21:39:36.182Z,6.33
2023-03-17T21:42:05.169Z,6.60
2023-03-17T21:44:33.081Z,5.40
2023-03-17T21:47:03.012Z,5.60
2023-03-17T21:49:30.649Z,5.27
2023-03-17T21:51:58.306Z,6.90
2023-03-17T21:54:26.388Z,5.50
2023-03-17T21:56:53.977Z,5.03
2023-03-17T21:59:21.724Z,5.30
2023-03-17T22:01:52.388Z,6.07
2023-03-17T22:04:22.015Z,5.00
2023-03-17T22:06:49.695Z,4.53
2023-03-17T22:09:19.192Z,5.30
2023-03-17T22:11:47.042Z,5.33
2023-03-17T22:14:19.753Z,4.70
2023-03-17T22:16:48.357Z,4.27
2023-03-17T22:19:17.091Z,5.07
2023-03-17T22:21:46.914Z,4.80
2023-03-17T22:24:14.740Z,4.73
2023-03-17T22:26:42.521Z,5.00
2023-03-17T22:29:10.342Z,4.60
2023-03-17T22:31:38.019Z,4.50
2023-03-17T22:34:06.504Z,4.83
2023-03-17T22:36:34.247Z,4.20
2023-03-17T22:39:03.476Z,4.50
2023-03-17T22:41:31.887Z,4.20
2023-03-17T22:43:59.546Z,4.00
2023-03-17T22:46:27.382Z,4.80
2023-03-17T22:48:55.140Z,4.40
2023-03-17T22:51:26.509Z,4.33
2023-03-17T22:53:54.363Z,5.00
2023-03-17T22:56:23.548Z,4.57
2023-03-17T22:58:51.224Z,5.03
2023-03-17T23:01:20.282Z,5.27
2023-03-17T23:03:48.017Z,4.67
2023-03-17T23:06:16.134Z,5.13
2023-03-17T23:08:45.917Z,4.70
2023-03-17T23:11:16.106Z,4.50
2023-03-17T23:13:45.911Z,4.20
2023-03-17T23:16:14.745Z,4.33
2023-03-17T23:18:46.111Z,6.17
2023-03-17T23:21:21.154Z,4.47
2023-03-17T23:23:49.401Z,4.20
2023-03-17T23:26:17.257Z,4.33
2023-03-17T23:28:46.505Z,4.87
2023-03-17T23:31:15.885Z,5.83
2023-03-17T23:33:43.703Z,5.87
2023-03-17T23:36:14.068Z,4.90
2023-03-17T23:38:42.671Z,4.67
2023-03-17T23:41:11.200Z,3.90
2023-03-17T23:43:39.138Z,3.87
2023-03-17T23:46:08.363Z,4.80
2023-03-17T23:48:36.167Z,4.20
2023-03-17T23:51:03.980Z,5.60
2023-03-17T23:53:32.858Z,4.30
2023-03-17T23:56:00.741Z,5.00
2023-03-17T23:58:28.455Z,4.40
